createdAt,value
2022-11-25T00:00:08.418Z,3.10
2022-11-25T00:05:14.891Z,2.90
2022-11-25T00:10:18.556Z,2.95
2022-11-25T00:15:23.424Z,3.85
2022-11-25T00:20:26.916Z,3.28
2022-11-25T00:25:30.358Z,3.22
2022-11-25T00:30:35.188Z,3.40
2022-11-25T00:35:38.703Z,2.90
2022-11-25T00:40:42.172Z,3.47
2022-11-25T00:45:47.950Z,4.10
2022-11-25T00:50:51.478Z,3.28
2022-11-25T00:56:12.328Z,3.85
2022-11-25T01:01:17.272Z,3.35
2022-11-25T01:06:22.143Z,3.33
2022-11-25T01:11:25.760Z,2.80
2022-11-25T01:16:32.134Z,3.30
2022-11-25T01:21:35.825Z,2.55
2022-11-25T01:26:39.328Z,2.78
2022-11-25T01:31:44.528Z,3.88
2022-11-25T01:36:48.425Z,3.40
2022-11-25T01:41:52.258Z,2.75
2022-11-25T01:47:02.161Z,2.92
2022-11-25T01:52:13.461Z,2.83
2022-11-25T01:57:23.099Z,2.95
2022-11-25T02:02:29.623Z,2.58
2022-11-25T02:07:36.367Z,3.38
2022-11-25T02:12:42.661Z,2.75
2022-11-25T02:17:48.077Z,2.65
2022-11-25T02:23:00.508Z,3.20
2022-11-25T02:28:08.842Z,3.65
2022-11-25T02:33:14.823Z,3.22
2022-11-25T02:38:32.016Z,2.72
2022-11-25T02:43:36.963Z,3.35
2022-11-25T02:54:06.400Z,3.45
2022-11-25T02:59:11.818Z,3.67
2022-11-25T03:04:15.918Z,2.40
2022-11-25T03:09:21.219Z,3.40
2022-11-25T03:14:26.263Z,3.40
2022-11-25T03:19:30.535Z,3.20
2022-11-25T03:24:34.605Z,3.30
2022-11-25T03:29:39.663Z,3.33
2022-11-25T03:34:43.262Z,3.42
2022-11-25T03:39:47.498Z,3.65
2022-11-25T03:44:52.529Z,3.38
2022-11-25T03:49:56.277Z,3.20
2022-11-25T03:54:59.852Z,3.58
2022-11-25T04:00:10.725Z,3.53
2022-11-25T04:05:32.098Z,2.75
2022-11-25T04:10:40.140Z,3.40
2022-11-25T04:15:48.352Z,3.20
2022-11-25T04:20:53.724Z,3.28
2022-11-25T04:25:58.087Z,3.25
2022-11-25T04:31:10.375Z,4.03
2022-11-25T04:36:18.030Z,3.13
2022-11-25T04:41:21.567Z,3.30
2022-11-25T04:46:34.307Z,3.20
2022-11-25T04:51:38.071Z,2.67
2022-11-25T04:56:43.718Z,3.25
2022-11-25T05:01:48.910Z,2.83
2022-11-25T05:07:11.805Z,3.13
2022-11-25T05:12:21.049Z,4.50
2022-11-25T05:17:28.059Z,3.50
2022-11-25T05:22:33.775Z,3.10
2022-11-25T05:27:39.011Z,3.50
2022-11-25T05:32:47.536Z,2.72
2022-11-25T05:37:52.512Z,2.47
2022-11-25T05:42:56.392Z,2.70
2022-11-25T05:48:02.571Z,2.38
2022-11-25T05:53:06.599Z,2.03
2022-11-25T05:58:12.198Z,1.75
2022-11-25T06:03:19.475Z,1.75
2022-11-25T06:08:23.499Z,1.85
2022-11-25T06:13:27.380Z,2.05
2022-11-25T06:18:32.211Z,2.13
2022-11-25T06:23:36.437Z,2.45
2022-11-25T06:28:40.479Z,1.98
2022-11-25T06:33:47.732Z,2.10
2022-11-25T06:38:54.555Z,1.90
2022-11-25T06:43:58.116Z,2.10
2022-11-25T06:49:03.028Z,1.90
2022-11-25T06:54:07.315Z,2.50
2022-11-25T06:59:10.811Z,2.00
2022-11-25T07:04:15.914Z,2.08
2022-11-25T07:09:19.794Z,1.85
2022-11-25T07:14:23.598Z,1.73
2022-11-25T07:19:33.385Z,2.17
2022-11-25T07:24:37.161Z,2.40
2022-11-25T07:30:29.171Z,2.28
2022-11-25T07:35:06.713Z,2.35
2022-11-25T07:40:11.331Z,2.53
2022-11-25T07:45:15.429Z,2.50
2022-11-25T07:50:23.683Z,2.70
2022-11-25T07:55:27.271Z,2.75
2022-11-25T08:00:30.832Z,4.90
2022-11-25T08:05:35.639Z,3.17
2022-11-25T08:10:41.213Z,2.92
2022-11-25T08:15:44.977Z,2.88
2022-11-25T08:20:50.059Z,2.97
2022-11-25T08:25:53.547Z,2.72
2022-11-25T08:31:03.806Z,3.00
2022-11-25T08:36:09.969Z,3.28
2022-11-25T08:41:15.131Z,5.40
2022-11-25T08:46:21.259Z,3.53
2022-11-25T08:51:29.199Z,3.20
2022-11-25T08:56:32.928Z,3.42
2022-11-25T09:01:36.571Z,3.30
2022-11-25T09:06:41.621Z,2.63
2022-11-25T09:11:45.331Z,3.28
2022-11-25T09:16:49.566Z,3.22
2022-11-25T09:21:54.770Z,3.00
2022-11-25T09:26:58.489Z,3.95
2022-11-25T09:32:02.162Z,3.40
2022-11-25T09:37:08.590Z,3.08
2022-11-25T09:42:45.214Z,3.05
2022-11-25T09:47:58.014Z,6.47
2022-11-25T09:53:12.180Z,3.05
2022-11-25T09:58:27.483Z,3.25
2022-11-25T10:03:38.702Z,3.88
2022-11-25T10:13:59.904Z,3.97
2022-11-25T10:19:13.150Z,4.13
2022-11-25T10:24:21.541Z,3.58
2022-11-25T10:29:28.214Z,3.70
2022-11-25T10:34:38.305Z,5.00
2022-11-25T10:39:43.430Z,4.30
2022-11-25T10:44:46.945Z,4.63
2022-11-25T10:50:13.989Z,3.63
2022-11-25T10:55:20.610Z,2.70
2022-11-25T11:00:31.708Z,2.90
2022-11-25T11:05:35.370Z,3.08
2022-11-25T11:10:41.259Z,2.72
2022-11-25T11:15:47.889Z,2.67
2022-11-25T11:20:54.011Z,2.40
2022-11-25T11:26:02.165Z,2.60
2022-11-25T11:31:08.943Z,2.63
2022-11-25T11:36:31.431Z,2.92
2022-11-25T11:41:41.907Z,2.85
2022-11-25T11:46:57.843Z,2.10
2022-11-25T11:52:10.563Z,3.03
2022-11-25T11:57:25.726Z,3.42
2022-11-25T12:02:46.896Z,3.13
2022-11-25T12:13:09.728Z,2.45
2022-11-25T12:18:34.750Z,3.95
2022-11-25T12:23:46.468Z,3.38
2022-11-25T12:28:57.663Z,2.63
2022-11-25T12:39:16.763Z,2.70
2022-11-25T12:44:27.080Z,2.72
2022-11-25T12:49:33.228Z,2.37
2022-11-25T12:55:04.441Z,3.05
2022-11-25T13:06:00.620Z,2.40
2022-11-25T13:11:32.238Z,2.88
2022-11-25T13:16:37.993Z,2.25
2022-11-25T13:21:58.306Z,2.22
2022-11-25T13:27:02.587Z,2.85
2022-11-25T13:32:27.355Z,3.33
2022-11-25T13:37:40.827Z,2.63
2022-11-25T13:42:45.658Z,2.15
2022-11-25T13:47:50.799Z,2.55
2022-11-25T13:53:00.491Z,3.00
2022-11-25T13:58:19.783Z,2.88
2022-11-25T14:03:47.931Z,3.05
2022-11-25T14:09:00.535Z,2.80
2022-11-25T14:14:43.906Z,3.28
2022-11-25T14:20:17.951Z,2.67
2022-11-25T14:25:26.666Z,3.05
2022-11-25T14:30:31.075Z,3.08
2022-11-25T14:35:45.400Z,3.25
2022-11-25T14:40:54.938Z,3.60
2022-11-25T14:46:15.506Z,3.13
2022-11-25T14:51:21.117Z,3.75
2022-11-25T14:56:30.044Z,4.93
2022-11-25T15:01:35.254Z,4.90
2022-11-25T15:06:42.729Z,3.45
2022-11-25T15:11:46.674Z,3.97
2022-11-25T15:16:50.725Z,4.18
2022-11-25T15:22:22.599Z,3.60
2022-11-25T15:27:26.527Z,4.15
2022-11-25T15:32:32.876Z,5.00
2022-11-25T15:37:38.441Z,3.80
2022-11-25T15:42:43.734Z,4.15
2022-11-25T15:47:47.656Z,4.57
2022-11-25T15:52:55.089Z,3.38
2022-11-25T15:58:03.731Z,5.32
2022-11-25T16:03:20.591Z,3.38
2022-11-25T16:08:38.508Z,5.55
2022-11-25T16:13:43.489Z,4.25
2022-11-25T16:19:07.385Z,3.63
2022-11-25T16:24:24.069Z,4.68
2022-11-25T16:29:32.139Z,4.30
2022-11-25T16:34:36.189Z,6.13
2022-11-25T16:39:41.439Z,4.88
2022-11-25T16:44:49.239Z,5.38
2022-11-25T16:49:53.181Z,7.75
2022-11-25T16:54:58.218Z,6.15
2022-11-25T17:00:08.543Z,5.82
2022-11-25T17:05:19.055Z,10.80
2022-11-25T17:10:24.120Z,4.17
2022-11-25T17:15:34.121Z,5.57
2022-11-25T17:20:37.747Z,5.93
2022-11-25T17:25:44.303Z,6.18
2022-11-25T17:30:49.671Z,6.20
2022-11-25T17:35:53.292Z,6.60
2022-11-25T17:40:58.288Z,5.38
2022-11-25T17:46:02.006Z,5.55
2022-11-25T17:51:07.627Z,4.82
2022-11-25T17:56:20.362Z,5.05
2022-11-25T18:01:24.061Z,8.07
2022-11-25T18:06:27.694Z,5.05
2022-11-25T18:11:32.682Z,4.80
2022-11-25T18:16:36.421Z,4.82
2022-11-25T18:21:40.109Z,5.90
2022-11-25T18:26:47.369Z,4.93
2022-11-25T18:31:51.929Z,6.38
2022-11-25T18:36:55.819Z,16.05
2022-11-25T18:42:01.331Z,7.18
2022-11-25T18:47:05.744Z,5.47
2022-11-25T18:52:09.521Z,5.40
2022-11-25T18:57:16.173Z,5.57
2022-11-25T19:02:20.137Z,5.85
2022-11-25T19:07:23.922Z,4.97
2022-11-25T19:12:28.861Z,5.20
2022-11-25T19:17:32.683Z,5.45
2022-11-25T19:22:36.277Z,5.43
2022-11-25T19:27:45.063Z,5.93
2022-11-25T19:32:51.935Z,5.47
2022-11-25T19:37:55.644Z,5.38
2022-11-25T19:43:00.563Z,5.20
2022-11-25T19:48:08.138Z,6.03
2022-11-25T19:53:17.375Z,5.13
2022-11-25T19:58:23.982Z,5.65
2022-11-25T20:03:31.620Z,6.05
2022-11-25T20:08:35.496Z,6.68
2022-11-25T20:13:40.535Z,5.68
2022-11-25T20:18:44.621Z,5.82
2022-11-25T20:23:50.185Z,13.35
2022-11-25T20:28:55.375Z,6.75
2022-11-25T20:33:59.120Z,6.65
2022-11-25T20:39:04.321Z,10.95
2022-11-25T20:44:13.205Z,7.80
2022-11-25T20:49:22.608Z,7.70
2022-11-25T20:54:26.396Z,10.02
2022-11-25T20:59:32.077Z,8.73
2022-11-25T21:04:35.782Z,9.10
2022-11-25T21:09:39.559Z,8.48
2022-11-25T21:14:44.451Z,7.63
2022-11-25T21:19:47.998Z,6.30
2022-11-25T21:24:51.609Z,7.72
2022-11-25T21:29:56.669Z,6.78
2022-11-25T21:35:00.304Z,6.07
2022-11-25T21:40:05.834Z,7.00
2022-11-25T21:45:14.679Z,6.28
2022-11-25T21:50:20.355Z,6.55
2022-11-25T21:55:23.854Z,7.50
2022-11-25T22:00:29.899Z,11.10
2022-11-25T22:05:33.410Z,8.80
2022-11-25T22:10:37.411Z,7.50
2022-11-25T22:15:42.591Z,8.02
2022-11-25T22:20:52.004Z,6.93
2022-11-25T22:25:58.285Z,6.70
2022-11-25T22:31:07.732Z,5.93
2022-11-25T22:36:33.349Z,7.13
2022-11-25T22:41:36.905Z,7.03
2022-11-25T22:46:41.763Z,6.45
2022-11-25T22:51:45.273Z,5.78
2022-11-25T22:56:48.840Z,7.30
2022-11-25T23:01:53.959Z,6.35
2022-11-25T23:06:57.608Z,6.20
2022-11-25T23:12:01.204Z,7.10
2022-11-25T23:17:07.410Z,7.07
2022-11-25T23:22:12.376Z,6.95
2022-11-25T23:27:16.583Z,6.53
2022-11-25T23:32:22.074Z,6.00
2022-11-25T23:37:25.609Z,6.20
2022-11-25T23:42:29.092Z,6.15
2022-11-25T23:47:33.977Z,5.05
2022-11-25T23:52:37.416Z,4.93
2022-11-25T23:57:41.063Z,5.22
